createdAt,value
2017-11-16T00:00:07.643Z,23.83
2017-11-16T00:02:35.200Z,23.42
2017-11-16T00:05:02.771Z,21.95
2017-11-16T00:07:30.328Z,23.45
2017-11-16T00:09:57.947Z,22.10
2017-11-16T00:12:25.517Z,23.00
2017-11-16T00:14:53.172Z,23.50
2017-11-16T00:17:20.713Z,23.90
2017-11-16T00:19:48.309Z,25.37
2017-11-16T00:22:15.870Z,23.85
2017-11-16T00:24:43.482Z,24.45
2017-11-16T00:27:11.819Z,24.35
2017-11-16T00:29:39.380Z,22.92
2017-11-16T00:32:06.924Z,23.58
2017-11-16T00:34:34.491Z,25.73
2017-11-16T00:37:02.047Z,25.50
2017-11-16T00:39:29.591Z,25.75
2017-11-16T00:41:57.162Z,24.83
2017-11-16T00:44:24.704Z,24.60
2017-11-16T00:46:52.300Z,24.37
2017-11-16T00:49:19.875Z,26.02
2017-11-16T00:51:47.447Z,24.40
2017-11-16T00:54:15.802Z,25.77
2017-11-16T00:56:43.349Z,25.27
2017-11-16T00:59:10.913Z,26.02
2017-11-16T01:01:38.467Z,26.35
2017-11-16T01:04:06.047Z,27.02
2017-11-16T01:06:33.629Z,28.35
2017-11-16T01:09:01.931Z,27.10
2017-11-16T01:11:29.511Z,26.58
2017-11-16T01:13:57.070Z,28.00
2017-11-16T01:16:24.649Z,26.77
2017-11-16T01:18:52.202Z,26.37
2017-11-16T01:21:19.773Z,26.50
2017-11-16T01:23:47.366Z,26.08
2017-11-16T01:26:15.700Z,27.27
2017-11-16T01:28:43.255Z,26.60
2017-11-16T01:31:10.813Z,25.27
2017-11-16T01:33:38.383Z,26.40
2017-11-16T01:36:06.706Z,25.48
2017-11-16T01:38:35.019Z,25.92
2017-11-16T01:41:02.570Z,26.15
2017-11-16T01:43:30.142Z,26.25
2017-11-16T01:45:57.673Z,26.42
2017-11-16T01:48:26.011Z,25.55
2017-11-16T01:50:53.581Z,26.10
2017-11-16T01:53:21.145Z,26.55
2017-11-16T01:55:48.715Z,24.15
2017-11-16T01:58:17.039Z,25.92
2017-11-16T02:00:44.635Z,25.77
2017-11-16T02:03:12.186Z,26.02
2017-11-16T02:05:39.740Z,26.17
2017-11-16T02:08:07.293Z,26.25
2017-11-16T02:10:34.840Z,27.92
2017-11-16T02:13:02.415Z,26.12
2017-11-16T02:15:29.974Z,27.08
2017-11-16T02:17:57.534Z,26.33
2017-11-16T02:20:25.089Z,26.58
2017-11-16T02:22:52.649Z,26.83
2017-11-16T02:25:20.231Z,26.55
2017-11-16T02:27:47.802Z,27.25
2017-11-16T02:30:15.376Z,26.87
2017-11-16T02:32:43.719Z,28.00
2017-11-16T02:35:11.265Z,27.35
2017-11-16T02:37:38.837Z,26.60
2017-11-16T02:40:06.401Z,29.20
2017-11-16T02:42:33.955Z,25.60
2017-11-16T02:45:01.538Z,26.33
2017-11-16T02:47:29.110Z,26.37
2017-11-16T02:49:56.685Z,28.27
2017-11-16T02:52:25.017Z,26.15
2017-11-16T02:54:52.582Z,27.23
2017-11-16T02:57:20.126Z,26.30
2017-11-16T02:59:47.779Z,27.52
2017-11-16T03:02:15.323Z,26.42
2017-11-16T03:04:42.882Z,25.45
2017-11-16T03:07:10.445Z,27.25
2017-11-16T03:09:38.033Z,26.30
2017-11-16T03:12:05.639Z,28.77
2017-11-16T03:14:33.986Z,29.37
2017-11-16T03:17:01.582Z,27.95
2017-11-16T03:19:30.003Z,26.70
2017-11-16T03:21:57.574Z,28.95
2017-11-16T03:24:25.113Z,27.98
2017-11-16T03:26:52.701Z,27.13
2017-11-16T03:29:20.263Z,28.50
2017-11-16T03:31:47.829Z,29.05
2017-11-16T03:41:01.368Z,28.45
2017-11-16T03:43:28.929Z,29.23
2017-11-16T03:45:56.491Z,29.48
2017-11-16T03:48:24.063Z,27.25
2017-11-16T03:50:51.628Z,28.33
2017-11-16T03:53:19.201Z,27.73
2017-11-16T03:55:46.777Z,29.40
2017-11-16T03:58:14.315Z,28.05
2017-11-16T04:00:41.879Z,27.87
2017-11-16T04:03:09.421Z,26.33
2017-11-16T04:05:36.966Z,28.10
2017-11-16T04:08:04.520Z,27.13
2017-11-16T04:10:32.101Z,28.25
2017-11-16T04:12:59.696Z,25.67
2017-11-16T04:15:27.261Z,26.90
2017-11-16T04:17:54.814Z,27.70
2017-11-16T04:20:22.369Z,28.05
2017-11-16T04:22:49.963Z,26.62
2017-11-16T04:25:18.286Z,28.05
2017-11-16T04:27:45.841Z,27.33
2017-11-16T04:30:13.396Z,28.25
2017-11-16T04:32:40.957Z,27.70
2017-11-16T04:35:08.510Z,27.02
2017-11-16T04:37:36.076Z,26.58
2017-11-16T04:40:03.638Z,27.17
2017-11-16T04:42:31.198Z,26.65
2017-11-16T04:44:58.776Z,27.67
2017-11-16T04:47:26.342Z,26.80
2017-11-16T04:49:53.886Z,24.77
2017-11-16T04:52:21.436Z,25.60
2017-11-16T04:54:48.979Z,25.75
2017-11-16T04:57:16.542Z,26.87
2017-11-16T04:59:44.133Z,25.95
2017-11-16T05:02:11.692Z,24.12
2017-11-16T05:04:39.245Z,26.05
2017-11-16T05:07:06.815Z,24.85
2017-11-16T05:09:34.370Z,23.98
2017-11-16T05:12:01.910Z,24.92
2017-11-16T05:14:29.457Z,24.35
2017-11-16T05:16:57.011Z,24.92
2017-11-16T05:19:24.575Z,24.60
2017-11-16T05:21:52.125Z,23.02
2017-11-16T05:24:19.693Z,23.75
2017-11-16T05:26:47.254Z,23.05
2017-11-16T05:29:14.935Z,24.23
2017-11-16T05:31:42.530Z,24.10
2017-11-16T05:34:10.072Z,24.15
2017-11-16T05:36:37.622Z,23.87
2017-11-16T05:39:05.194Z,22.80
2017-11-16T05:41:32.783Z,23.33
2017-11-16T05:44:00.342Z,21.87
2017-11-16T05:46:27.917Z,22.50
2017-11-16T05:48:56.247Z,24.37
2017-11-16T05:51:23.811Z,24.67
2017-11-16T05:53:51.376Z,23.83
2017-11-16T05:56:18.924Z,22.60
2017-11-16T05:58:46.481Z,22.45
2017-11-16T06:01:14.049Z,24.73
2017-11-16T06:03:41.627Z,25.35
2017-11-16T06:06:09.195Z,24.60
2017-11-16T06:08:36.757Z,22.70
2017-11-16T06:11:04.314Z,22.25
2017-11-16T06:13:31.867Z,23.58
2017-11-16T06:15:59.444Z,22.15
2017-11-16T06:18:27.015Z,23.05
2017-11-16T06:20:55.365Z,23.62
2017-11-16T06:23:22.939Z,23.05
2017-11-16T06:25:50.513Z,22.05
2017-11-16T06:28:18.863Z,25.27
2017-11-16T06:30:46.413Z,23.60
2017-11-16T06:33:13.989Z,24.52
2017-11-16T06:35:41.570Z,24.27
2017-11-16T06:38:09.900Z,23.80
2017-11-16T06:40:37.478Z,25.17
2017-11-16T06:43:05.045Z,23.62
2017-11-16T06:45:32.603Z,23.45
2017-11-16T06:48:00.181Z,23.60
2017-11-16T06:50:27.722Z,23.67
2017-11-16T06:52:55.313Z,24.05
2017-11-16T06:55:23.611Z,24.87
2017-11-16T06:57:51.186Z,25.80
2017-11-16T07:00:18.778Z,24.85
2017-11-16T07:02:46.357Z,25.50
2017-11-16T07:05:13.898Z,25.05
2017-11-16T07:07:41.466Z,24.15
2017-11-16T07:10:09.033Z,24.35
2017-11-16T07:12:36.590Z,22.30
2017-11-16T07:15:04.161Z,24.63
2017-11-16T07:17:31.714Z,25.70
2017-11-16T07:19:59.276Z,26.48
2017-11-16T07:22:26.850Z,23.33
2017-11-16T07:24:55.202Z,23.73
2017-11-16T07:27:22.747Z,24.23
2017-11-16T07:29:50.337Z,24.20
2017-11-16T07:32:17.894Z,24.70
2017-11-16T07:34:45.440Z,27.20
2017-11-16T07:37:12.985Z,24.33
2017-11-16T07:39:40.538Z,24.92
2017-11-16T07:42:08.115Z,25.75
2017-11-16T07:44:35.670Z,25.37
2017-11-16T07:47:03.266Z,24.25
2017-11-16T07:49:31.589Z,24.48
2017-11-16T07:51:59.142Z,24.67
2017-11-16T07:54:26.734Z,24.08
2017-11-16T07:56:54.276Z,25.60
2017-11-16T07:59:21.824Z,24.27
2017-11-16T08:01:49.390Z,23.73
2017-11-16T08:04:16.954Z,22.17
2017-11-16T08:06:44.510Z,22.75
2017-11-16T08:09:12.079Z,23.50
2017-11-16T08:11:39.629Z,25.67
2017-11-16T08:14:07.173Z,23.67
2017-11-16T08:16:34.763Z,24.37
2017-11-16T08:19:03.098Z,24.63
2017-11-16T08:21:30.644Z,25.35
2017-11-16T08:23:58.969Z,23.55
2017-11-16T08:26:26.547Z,23.20
2017-11-16T08:28:54.129Z,22.55
2017-11-16T08:31:21.698Z,22.60
2017-11-16T08:33:50.018Z,23.55
2017-11-16T08:36:17.595Z,22.25
2017-11-16T08:38:45.150Z,23.35
2017-11-16T08:41:12.694Z,23.70
2017-11-16T08:43:40.257Z,22.23
2017-11-16T08:46:07.839Z,22.60
2017-11-16T08:48:35.410Z,23.02
2017-11-16T08:51:03.007Z,21.92
2017-11-16T08:53:31.373Z,24.15
2017-11-16T08:55:59.690Z,21.83
2017-11-16T08:58:27.241Z,22.98
2017-11-16T09:00:54.840Z,21.42
2017-11-16T09:03:22.388Z,20.58
2017-11-16T09:05:49.943Z,22.58
2017-11-16T09:08:17.512Z,20.83
2017-11-16T09:10:45.107Z,20.35
2017-11-16T09:13:12.677Z,21.48
2017-11-16T09:15:47.275Z,20.37
2017-11-16T09:18:14.842Z,20.65
2017-11-16T09:20:42.413Z,20.30
2017-11-16T09:23:09.978Z,17.98
2017-11-16T09:25:37.574Z,17.98
2017-11-16T09:28:05.209Z,19.15
2017-11-16T09:30:32.761Z,20.17
2017-11-16T09:33:00.336Z,20.30
2017-11-16T09:35:27.875Z,18.15
2017-11-16T09:37:55.426Z,18.42
2017-11-16T09:40:23.053Z,19.00
2017-11-16T09:42:51.482Z,17.02
2017-11-16T09:45:19.030Z,19.20
2017-11-16T09:47:46.622Z,17.77
2017-11-16T09:50:14.194Z,19.10
2017-11-16T09:52:41.775Z,17.52
2017-11-16T09:55:10.104Z,18.65
2017-11-16T09:57:38.441Z,17.62
2017-11-16T10:00:05.990Z,17.15
2017-11-16T10:02:34.327Z,16.48
2017-11-16T10:05:01.877Z,17.30
2017-11-16T10:07:29.433Z,15.90
2017-11-16T10:09:57.003Z,16.58
2017-11-16T10:12:24.570Z,16.55
2017-11-16T10:14:52.142Z,17.67
2017-11-16T10:17:19.693Z,18.33
2017-11-16T10:19:47.300Z,18.80
2017-11-16T10:22:14.850Z,17.12
2017-11-16T10:24:43.191Z,18.08
2017-11-16T10:27:10.757Z,17.60
2017-11-16T10:29:38.321Z,17.20
2017-11-16T10:32:05.880Z,17.40
2017-11-16T10:34:33.438Z,17.20
2017-11-16T10:37:01.003Z,17.87
2017-11-16T10:39:28.561Z,16.90
2017-11-16T10:41:56.119Z,18.70
2017-11-16T10:44:23.691Z,18.45
2017-11-16T10:46:51.277Z,19.17
2017-11-16T10:49:18.848Z,18.12
2017-11-16T10:51:46.408Z,18.45
2017-11-16T10:54:14.019Z,19.90
2017-11-16T10:56:41.578Z,18.55
2017-11-16T10:59:09.146Z,17.20
2017-11-16T11:01:37.573Z,17.37
2017-11-16T11:04:05.137Z,16.55
2017-11-16T11:06:32.714Z,16.50
2017-11-16T11:09:00.289Z,16.58
2017-11-16T11:11:28.626Z,17.58
2017-11-16T11:13:56.205Z,17.08
2017-11-16T11:16:23.784Z,16.80
2017-11-16T11:18:51.325Z,17.85
2017-11-16T11:21:18.896Z,17.45
2017-11-16T11:23:47.242Z,17.33
2017-11-16T11:26:14.803Z,17.50
2017-11-16T11:28:42.401Z,17.20
2017-11-16T11:31:10.060Z,19.50
2017-11-16T11:33:37.661Z,16.75
2017-11-16T11:36:05.997Z,16.15
2017-11-16T11:38:33.587Z,16.98
2017-11-16T11:41:01.147Z,17.20
2017-11-16T11:43:28.724Z,16.25
2017-11-16T11:45:57.041Z,16.05
2017-11-16T11:48:24.629Z,16.20
2017-11-16T11:50:52.184Z,14.90
2017-11-16T11:53:19.743Z,16.42
2017-11-16T11:55:47.324Z,16.33
2017-11-16T11:58:14.891Z,16.73
2017-11-16T12:00:42.481Z,15.97
2017-11-16T12:03:10.069Z,16.50
2017-11-16T12:05:37.668Z,16.33
2017-11-16T12:08:05.236Z,15.88
2017-11-16T12:10:32.810Z,16.47
2017-11-16T12:13:01.170Z,17.07
2017-11-16T12:15:28.731Z,16.23
2017-11-16T12:17:56.296Z,15.47
2017-11-16T12:20:23.846Z,15.90
2017-11-16T12:22:51.438Z,16.37
2017-11-16T12:25:19.772Z,16.58
2017-11-16T12:27:47.336Z,17.05
2017-11-16T12:30:14.928Z,15.47
2017-11-16T12:32:43.243Z,16.53
2017-11-16T12:35:10.841Z,16.27
2017-11-16T12:37:38.427Z,16.90
2017-11-16T12:40:06.770Z,16.70
2017-11-16T12:42:34.331Z,15.90
2017-11-16T12:45:01.932Z,16.83
2017-11-16T12:47:30.266Z,16.60
2017-11-16T12:49:57.873Z,15.63
2017-11-16T12:52:26.261Z,15.57
2017-11-16T12:54:53.831Z,15.82
2017-11-16T12:57:21.387Z,18.57
2017-11-16T12:59:48.985Z,17.90
2017-11-16T13:02:16.569Z,17.27
2017-11-16T13:04:44.106Z,16.87
2017-11-16T13:07:11.678Z,16.47
2017-11-16T13:09:39.228Z,17.17
2017-11-16T13:12:06.800Z,15.80
2017-11-16T13:14:34.354Z,16.57
2017-11-16T13:17:01.901Z,16.03
2017-11-16T13:19:29.471Z,17.70
2017-11-16T13:21:57.800Z,16.90
2017-11-16T13:24:26.137Z,16.53
2017-11-16T13:26:53.711Z,16.30
2017-11-16T13:29:21.303Z,15.67
2017-11-16T13:31:49.618Z,17.03
2017-11-16T13:34:17.193Z,16.63
2017-11-16T13:36:44.800Z,17.42
2017-11-16T13:39:13.293Z,16.33
2017-11-16T13:41:40.851Z,17.00
2017-11-16T13:44:09.195Z,17.07
2017-11-16T13:46:36.792Z,15.97
2017-11-16T13:49:04.351Z,17.73
2017-11-16T13:51:31.942Z,17.17
2017-11-16T13:53:59.518Z,16.93
2017-11-16T13:56:27.112Z,17.15
2017-11-16T13:58:55.447Z,16.25
2017-11-16T14:01:22.994Z,16.73
2017-11-16T14:03:50.566Z,17.00
2017-11-16T14:06:18.119Z,17.30
2017-11-16T14:08:45.700Z,16.20
2017-11-16T14:11:13.266Z,15.55
2017-11-16T14:13:40.862Z,17.10
2017-11-16T14:16:09.208Z,17.23
2017-11-16T14:18:36.788Z,19.77
2017-11-16T14:21:04.358Z,16.93
2017-11-16T14:23:32.707Z,17.83
2017-11-16T14:26:00.280Z,14.77
2017-11-16T14:28:27.847Z,17.37
2017-11-16T14:30:55.431Z,17.33
2017-11-16T14:33:23.018Z,17.45
2017-11-16T14:35:50.605Z,15.77
2017-11-16T14:38:18.153Z,16.40
2017-11-16T14:40:45.722Z,17.05
2017-11-16T14:43:13.270Z,16.30
2017-11-16T14:45:40.831Z,16.43
2017-11-16T14:48:08.413Z,17.17
2017-11-16T14:50:36.000Z,17.40
2017-11-16T14:53:04.347Z,18.27
2017-11-16T14:55:31.903Z,17.08
2017-11-16T14:57:59.486Z,16.87
2017-11-16T15:00:27.814Z,17.45
2017-11-16T15:02:55.416Z,17.62
2017-11-16T15:05:22.992Z,18.07
2017-11-16T15:07:51.331Z,18.00
2017-11-16T15:10:18.905Z,18.58
2017-11-16T15:12:46.472Z,18.62
2017-11-16T15:15:14.044Z,17.55
2017-11-16T15:17:42.395Z,18.25
2017-11-16T15:20:09.977Z,18.50
2017-11-16T15:22:37.558Z,17.98
2017-11-16T15:25:05.904Z,19.10
2017-11-16T15:27:33.463Z,18.65
2017-11-16T15:30:01.050Z,17.80
2017-11-16T15:32:29.404Z,17.17
2017-11-16T15:34:56.992Z,18.87
2017-11-16T15:37:25.372Z,29.20
2017-11-16T15:39:53.718Z,19.02
2017-11-16T15:42:21.329Z,19.15
2017-11-16T15:44:48.891Z,18.45
2017-11-16T15:47:16.470Z,19.17
2017-11-16T15:49:44.044Z,20.55
2017-11-16T15:52:11.647Z,22.95
2017-11-16T15:54:40.005Z,29.35
2017-11-16T15:57:07.583Z,23.48
2017-11-16T15:59:35.168Z,21.48
2017-11-16T16:02:02.747Z,21.67
2017-11-16T16:04:30.310Z,23.48
2017-11-16T16:06:57.882Z,26.75
2017-11-16T16:09:25.514Z,33.28
2017-11-16T16:11:53.121Z,29.12
2017-11-16T16:14:20.675Z,30.35
2017-11-16T16:16:48.280Z,25.67
2017-11-16T16:19:16.598Z,28.90
2017-11-16T16:21:44.174Z,29.48
2017-11-16T16:24:11.730Z,28.50
2017-11-16T16:26:39.306Z,26.35
2017-11-16T16:29:06.870Z,24.45
2017-11-16T16:31:34.436Z,38.00
2017-11-16T16:34:02.032Z,32.05
2017-11-16T16:36:29.606Z,23.77
2017-11-16T16:38:57.200Z,22.85
2017-11-16T16:41:24.773Z,23.48
2017-11-16T16:43:52.349Z,21.35
2017-11-16T16:46:19.910Z,23.75
2017-11-16T16:48:47.494Z,22.42
2017-11-16T16:51:15.857Z,22.33
2017-11-16T16:53:44.200Z,21.42
2017-11-16T16:56:11.835Z,21.27
2017-11-16T16:58:39.412Z,21.90
2017-11-16T17:01:06.990Z,23.95
2017-11-16T17:03:34.568Z,33.38
2017-11-16T17:06:02.136Z,26.70
2017-11-16T17:08:29.700Z,25.37
2017-11-16T17:10:57.280Z,26.30
2017-11-16T17:13:25.633Z,22.62
2017-11-16T17:15:53.214Z,22.02
2017-11-16T17:18:20.816Z,22.40
2017-11-16T17:20:48.420Z,24.95
2017-11-16T17:23:16.014Z,23.87
2017-11-16T17:25:44.355Z,25.25
2017-11-16T17:28:11.948Z,21.20
2017-11-16T17:30:40.272Z,21.27
2017-11-16T17:33:07.846Z,20.08
2017-11-16T17:35:35.406Z,22.30
2017-11-16T17:38:03.011Z,22.15
2017-11-16T17:40:33.171Z,22.65
2017-11-16T17:43:01.164Z,21.52
2017-11-16T17:45:29.804Z,20.23
2017-11-16T17:48:00.289Z,20.62
2017-11-16T17:50:31.177Z,24.80
2017-11-16T17:52:58.844Z,22.37
2017-11-16T17:55:26.543Z,22.42
2017-11-16T17:57:54.159Z,22.52
2017-11-16T18:00:21.845Z,20.52
2017-11-16T18:02:49.549Z,21.62
2017-11-16T18:05:17.240Z,21.02
2017-11-16T18:07:45.889Z,21.67
2017-11-16T18:12:55.654Z,22.67
2017-11-16T18:15:23.222Z,21.50
2017-11-16T18:17:50.873Z,21.50
2017-11-16T18:20:18.533Z,34.92
2017-11-16T18:22:47.300Z,24.17
2017-11-16T18:25:15.755Z,22.35
2017-11-16T18:27:43.477Z,31.52
2017-11-16T18:30:11.103Z,22.05
2017-11-16T18:32:38.668Z,22.95
2017-11-16T18:35:06.262Z,20.65
2017-11-16T18:37:34.148Z,25.77
2017-11-16T18:40:02.912Z,28.90
2017-11-16T18:42:32.468Z,21.37
2017-11-16T18:45:00.082Z,21.33
2017-11-16T18:47:28.780Z,20.40
2017-11-16T18:49:56.449Z,21.23
2017-11-16T18:52:24.935Z,21.35
2017-11-16T18:54:52.528Z,21.75
2017-11-16T18:57:20.137Z,21.60
2017-11-16T18:59:47.829Z,21.77
2017-11-16T19:02:15.476Z,22.27
2017-11-16T19:04:43.161Z,20.33
2017-11-16T19:07:10.928Z,21.45
2017-11-16T19:09:38.536Z,20.90
2017-11-16T19:12:06.121Z,20.85
2017-11-16T19:14:33.841Z,20.77
2017-11-16T19:17:01.429Z,21.15
2017-11-16T19:19:29.823Z,20.45
2017-11-16T19:21:57.367Z,20.60
2017-11-16T19:24:24.956Z,22.10
2017-11-16T19:26:52.563Z,22.27
2017-11-16T19:29:20.132Z,23.77
2017-11-16T19:31:47.876Z,21.67
2017-11-16T19:34:15.448Z,21.02
2017-11-16T19:36:43.014Z,21.15
2017-11-16T19:39:10.603Z,21.87
2017-11-16T19:41:38.176Z,22.33
2017-11-16T19:44:05.737Z,19.55
2017-11-16T19:46:33.354Z,23.85
2017-11-16T19:49:00.951Z,28.17
2017-11-16T19:51:28.526Z,23.20
2017-11-16T19:53:56.875Z,23.38
2017-11-16T19:56:24.418Z,26.62
2017-11-16T19:58:52.132Z,25.40
2017-11-16T20:01:19.755Z,24.90
2017-11-16T20:03:47.335Z,23.00
2017-11-16T20:06:14.895Z,19.67
2017-11-16T20:08:43.165Z,19.48
2017-11-16T20:11:10.777Z,19.20
2017-11-16T20:13:38.361Z,17.98
2017-11-16T20:16:05.943Z,19.95
2017-11-16T20:18:33.499Z,18.30
2017-11-16T20:21:01.057Z,19.65
2017-11-16T20:23:28.650Z,19.50
2017-11-16T20:25:56.238Z,17.42
2017-11-16T20:28:23.820Z,18.55
2017-11-16T20:30:51.390Z,18.15
2017-11-16T20:33:18.962Z,17.55
2017-11-16T20:35:46.553Z,17.58
2017-11-16T20:38:30.750Z,18.40
2017-11-16T20:41:14.147Z,23.40
2017-11-16T20:44:00.239Z,22.20
2017-11-16T20:46:44.423Z,19.62
2017-11-16T20:49:27.671Z,18.30
2017-11-16T20:52:00.996Z,18.58
2017-11-16T20:54:31.172Z,18.60
2017-11-16T20:56:58.765Z,18.65
2017-11-16T20:59:26.364Z,19.60
2017-11-16T21:01:53.937Z,18.95
2017-11-16T21:04:21.497Z,18.48
2017-11-16T21:06:49.058Z,17.48
2017-11-16T21:09:16.606Z,18.83
2017-11-16T21:11:44.198Z,17.37
2017-11-16T21:14:11.773Z,19.87
2017-11-16T21:16:39.328Z,19.05
2017-11-16T21:19:06.891Z,18.00
2017-11-16T21:21:34.466Z,19.00
2017-11-16T21:24:02.038Z,19.02
2017-11-16T21:26:29.609Z,20.60
2017-11-16T21:28:57.925Z,18.37
2017-11-16T21:31:25.490Z,18.20
2017-11-16T21:33:53.071Z,18.83
2017-11-16T21:36:20.637Z,18.50
2017-11-16T21:38:48.213Z,18.75
2017-11-16T21:41:15.792Z,19.50
2017-11-16T21:43:44.129Z,20.58
2017-11-16T21:46:11.717Z,19.60
2017-11-16T21:48:39.282Z,18.55
2017-11-16T21:51:07.605Z,19.50
2017-11-16T21:53:35.189Z,19.23
2017-11-16T21:56:02.742Z,19.60
2017-11-16T21:58:30.305Z,18.87
2017-11-16T22:00:57.865Z,20.37
2017-11-16T22:03:25.434Z,20.62
2017-11-16T22:05:53.032Z,21.70
2017-11-16T22:08:21.391Z,20.77
2017-11-16T22:10:48.947Z,22.80
2017-11-16T22:13:16.545Z,24.65
2017-11-16T22:15:44.127Z,29.85
2017-11-16T22:18:11.702Z,31.45
2017-11-16T22:20:39.301Z,22.70
2017-11-16T22:23:07.630Z,27.80
2017-11-16T22:25:35.244Z,30.50
2017-11-16T22:28:03.572Z,25.33
2017-11-16T22:30:31.155Z,31.98
2017-11-16T22:32:58.739Z,56.63
2017-11-16T22:35:26.323Z,26.58
2017-11-16T22:37:53.856Z,30.88
2017-11-16T22:40:21.431Z,33.63
2017-11-16T22:42:49.775Z,31.00
2017-11-16T22:45:17.370Z,23.12
2017-11-16T22:47:45.684Z,20.95
2017-11-16T22:50:13.257Z,22.10
2017-11-16T22:52:40.837Z,25.60
2017-11-16T22:55:08.399Z,23.55
2017-11-16T22:57:35.951Z,26.50
2017-11-16T23:00:03.491Z,27.25
2017-11-16T23:02:31.056Z,29.83
2017-11-16T23:04:58.658Z,33.42
2017-11-16T23:07:27.002Z,29.80
2017-11-16T23:09:54.643Z,23.15
2017-11-16T23:12:22.205Z,24.17
2017-11-16T23:14:49.794Z,23.20
2017-11-16T23:17:17.355Z,27.15
2017-11-16T23:19:44.918Z,28.45
2017-11-16T23:22:12.466Z,29.75
2017-11-16T23:24:40.026Z,23.12
2017-11-16T23:27:07.601Z,22.60
2017-11-16T23:29:35.168Z,24.20
2017-11-16T23:32:02.746Z,23.12
2017-11-16T23:34:31.061Z,24.98
2017-11-16T23:36:58.653Z,26.15
2017-11-16T23:39:26.201Z,25.48
2017-11-16T23:41:53.775Z,24.67
2017-11-16T23:44:21.362Z,31.40
2017-11-16T23:46:49.699Z,34.65
2017-11-16T23:49:17.298Z,30.77
2017-11-16T23:51:45.623Z,27.40
2017-11-16T23:54:13.168Z,29.87
2017-11-16T23:56:40.805Z,26.52
2017-11-16T23:59:08.358Z,32.78
